createdAt,value
2018-05-29T17:04:28.973Z,1015.13
2018-05-29T17:05:28.981Z,1015.24
2018-05-29T17:07:21.147Z,1015.09
2018-05-29T17:08:20.797Z,1015.26
2018-05-29T17:09:20.505Z,1015.16
2018-05-29T17:10:20.622Z,1014.98
2018-05-29T17:11:20.855Z,1015.61
2018-05-29T17:12:21.056Z,1015.45
2018-05-29T17:13:20.523Z,1015.31
2018-05-29T17:14:21.042Z,1015.11
2018-05-29T17:15:20.684Z,1015.37
2018-05-29T17:16:22.683Z,1015.18
2018-05-29T17:17:20.585Z,1014.84
2018-05-29T17:18:21.134Z,1014.76
2018-05-29T17:19:21.258Z,1014.84
2018-05-29T17:20:21.111Z,1014.8
2018-05-29T17:21:21.062Z,1015.11
2018-05-29T17:22:20.997Z,1014.87
2018-05-29T17:23:20.589Z,1014.91
2018-05-29T17:24:20.677Z,1014.62
2018-05-29T17:25:20.566Z,1014.59
2018-05-29T17:26:20.640Z,1014.59
2018-05-29T17:27:21.209Z,1014.48
2018-05-29T17:28:23.440Z,1014.44
2018-05-29T17:29:21.753Z,1014.36
2018-05-29T17:30:21.047Z,1014.45
2018-05-29T17:31:20.579Z,1014.41
2018-05-29T17:32:21.476Z,1014.44
2018-05-29T17:33:21.101Z,1014.49
2018-05-29T17:34:20.700Z,1014.32
2018-05-29T17:35:20.548Z,1013.99
2018-05-29T17:36:20.487Z,1014.15
2018-05-29T17:37:21.067Z,1013.84
2018-05-29T17:38:21.025Z,1013.93
2018-05-29T17:39:20.509Z,1013.98
2018-05-29T17:40:20.499Z,1013.93
2018-05-29T17:41:20.680Z,1013.64
2018-05-29T17:42:21.076Z,1014.09
2018-05-29T17:43:21.108Z,1013.68
2018-05-29T17:44:21.291Z,1013.63
2018-05-29T17:45:21.143Z,1013.64
2018-05-29T17:46:23.507Z,1013.66
2018-05-29T17:47:20.416Z,1013.91
2018-05-29T17:48:22.951Z,1013.8
2018-05-29T17:50:05.525Z,1013.89
2018-05-29T17:50:20.685Z,1013.74
2018-05-29T17:51:21.183Z,1014.02
2018-05-29T17:52:21.227Z,1013.56
2018-05-29T17:53:22.380Z,1013.76
2018-05-29T17:54:24.335Z,1013.65
2018-05-29T17:55:22.698Z,1013.7
2018-05-29T17:56:36.842Z,1013.64
2018-05-29T17:57:21.082Z,1013.75
2018-05-29T17:58:21.201Z,1013.68
2018-05-29T17:59:20.666Z,1013.79
2018-05-29T18:00:20.693Z,1013.76
2018-05-29T18:01:21.205Z,1013.78
2018-05-29T18:02:21.225Z,1013.79
2018-05-29T18:03:20.638Z,1013.64
2018-05-29T18:04:22.922Z,1013.44
2018-05-29T18:05:21.327Z,1013.56
2018-05-29T18:06:21.380Z,1013.42
2018-05-29T18:07:22.505Z,1013.64
2018-05-29T18:08:20.592Z,1013.71
2018-05-29T18:09:20.990Z,1013.66
2018-05-29T18:10:21.211Z,1013.76
2018-05-29T18:11:21.362Z,1013.78
2018-05-29T18:12:21.040Z,1013.47
2018-05-29T18:13:20.683Z,1013.37
2018-05-29T18:14:21.430Z,1013.55
2018-05-29T18:15:20.729Z,1013.54
2018-05-29T18:16:21.233Z,1013.52
2018-05-29T18:17:21.093Z,1013.42
2018-05-29T18:18:21.180Z,1013.37
2018-05-29T18:19:21.733Z,1013.39
2018-05-29T18:20:20.985Z,1013.41
2018-05-29T18:21:21.207Z,1013.45
2018-05-29T18:22:21.300Z,1013.34
2018-05-29T18:23:21.096Z,1013.51
2018-05-29T18:24:21.883Z,1013.35
2018-05-29T18:25:20.725Z,1013.39
2018-05-29T18:26:21.111Z,1013.42
2018-05-29T18:27:20.657Z,1013.14
2018-05-29T18:28:21.203Z,1013.26
2018-05-29T18:29:20.653Z,1013.57
2018-05-29T18:30:21.293Z,1013.25
2018-05-29T18:31:21.143Z,1013.25
2018-05-29T18:32:21.088Z,1013.43
2018-05-29T18:33:20.595Z,1013.46
2018-05-29T18:34:21.585Z,1013.11
2018-05-29T18:35:21.066Z,1013.24
2018-05-29T18:36:21.172Z,1013.25
2018-05-29T18:37:20.653Z,1013.39
2018-05-29T18:38:20.512Z,1013.23
2018-05-29T18:39:20.488Z,1013.18
2018-05-29T18:40:20.473Z,1013.14
2018-05-29T18:41:20.527Z,1013.23
2018-05-29T18:42:20.715Z,1013.27
2018-05-29T18:43:21.067Z,1013.31
2018-05-29T18:44:30.913Z,1013.28
2018-05-29T18:45:20.850Z,1013.2
2018-05-29T18:46:21.200Z,1013.26
2018-05-29T18:47:20.826Z,1013.33
2018-05-29T18:48:20.938Z,1013.32
2018-05-29T18:49:20.678Z,1013.51
2018-05-29T18:50:21.260Z,1013.23
2018-05-29T18:51:21.304Z,1013.35
2018-05-29T18:52:21.099Z,1013.25
2018-05-29T18:53:21.230Z,1013.6
2018-05-29T18:54:21.130Z,1013.28
2018-05-29T18:55:20.710Z,1013.29
2018-05-29T18:56:20.685Z,1013.47
2018-05-29T18:57:20.713Z,1013.42
2018-05-29T18:58:20.639Z,1013.61
2018-05-29T18:59:20.965Z,1013.52
2018-05-29T19:00:23.077Z,1013.41
2018-05-29T19:01:21.638Z,1013.52
2018-05-29T19:02:20.927Z,1013.43
2018-05-29T19:03:21.367Z,1013.57
2018-05-29T19:04:21.203Z,1013.59
2018-05-29T19:05:21.212Z,1013.51
2018-05-29T19:06:21.558Z,1013.64
2018-05-29T19:07:21.016Z,1013.62
2018-05-29T19:08:20.601Z,1013.69
2018-05-29T19:09:21.778Z,1013.71
2018-05-29T19:10:20.671Z,1013.8
2018-05-29T19:17:01.068Z,1013.76
2018-05-29T19:18:01.588Z,1013.59
2018-05-29T19:19:11.382Z,1013.87
2018-05-29T19:20:02.025Z,1014.2
2018-05-29T19:21:02.401Z,1013.98
2018-05-29T19:22:02.373Z,1013.56
2018-05-29T19:23:02.041Z,1013.69
2018-05-29T19:24:00.811Z,1013.58
2018-05-29T19:25:00.941Z,1013.69
2018-05-29T19:26:01.173Z,1013.86
2018-05-29T19:27:02.148Z,1013.64
2018-05-29T19:28:01.136Z,1013.37
2018-05-29T19:29:01.047Z,1013.64
2018-05-29T19:30:00.983Z,1013.73
2018-05-29T19:31:01.244Z,1013.78
2018-05-29T19:32:00.726Z,1013.69
2018-05-29T19:33:00.734Z,1013.77
2018-05-29T19:34:00.993Z,1013.75
2018-05-29T19:35:01.754Z,1013.71
2018-05-29T19:36:01.233Z,1013.8
2018-05-29T19:37:01.579Z,1013.98
2018-05-29T19:38:00.834Z,1013.89
2018-05-29T19:39:01.077Z,1013.64
2018-05-29T19:40:00.709Z,1014.14
2018-05-29T19:41:00.738Z,1013.82
2018-05-29T19:42:01.126Z,1013.9
2018-05-29T19:43:01.916Z,1013.83
2018-05-29T19:44:01.280Z,1013.82
2018-05-29T19:45:02.187Z,1013.85
2018-05-29T19:46:01.406Z,1013.81
2018-05-29T19:47:02.253Z,1013.65
2018-05-29T19:48:03.214Z,1013.7
2018-05-29T19:49:01.408Z,1013.66
2018-05-29T19:50:00.789Z,1013.35
2018-05-29T19:51:00.683Z,1013.66
2018-05-29T19:52:00.849Z,1013.78
2018-05-29T19:53:00.900Z,1013.36
2018-05-29T19:54:00.781Z,1013.7
2018-05-29T19:55:01.012Z,1013.57
2018-05-29T19:56:00.527Z,1013.73
2018-05-29T19:57:00.798Z,1013.41
2018-05-29T19:58:00.925Z,1013.7
2018-05-29T19:59:00.753Z,1013.89
2018-05-29T20:00:01.325Z,1014.24
2018-05-29T20:01:00.706Z,1014.18
2018-05-29T20:02:00.748Z,1014.04
2018-05-29T20:03:01.954Z,1014.14
2018-05-29T20:04:00.486Z,1013.76
2018-05-29T20:05:01.082Z,1014.3
2018-05-29T20:06:01.179Z,1014.04
2018-05-29T20:07:00.876Z,1014.04
2018-05-29T20:08:00.820Z,1014.22
2018-05-29T20:09:00.876Z,1014.3
2018-05-29T20:10:00.817Z,1014.11
2018-05-29T20:11:01.272Z,1013.92
2018-05-29T20:12:01.114Z,1013.92
2018-05-29T20:13:00.936Z,1013.93
2018-05-29T20:14:01.048Z,1014.22
2018-05-29T20:15:00.710Z,1014.29
2018-05-29T20:16:00.931Z,1014.14
2018-05-29T20:17:01.291Z,1014.26
2018-05-29T20:18:00.955Z,1014.68
2018-05-29T20:19:01.576Z,1014.35
2018-05-29T20:20:01.372Z,1014.34
2018-05-29T20:21:01.083Z,1014.42
2018-05-29T20:22:01.600Z,1014.32
2018-05-29T20:23:01.905Z,1014.54
2018-05-29T20:24:01.452Z,1014.28
2018-05-29T20:25:01.227Z,1014.17
2018-05-29T20:26:00.917Z,1014.09
2018-05-29T20:27:01.301Z,1014.36
2018-05-29T20:28:01.993Z,1014.47
2018-05-29T20:29:01.475Z,1014.34
2018-05-29T20:30:01.376Z,1014.23
2018-05-29T20:31:00.763Z,1014.33
2018-05-29T20:32:00.628Z,1014.36
2018-05-29T20:33:00.653Z,1014.47
2018-05-29T20:34:01.047Z,1014.81
2018-05-29T20:35:01.068Z,1014.47
2018-05-29T20:36:00.909Z,1014.29
2018-05-29T20:37:00.709Z,1014.68
2018-05-29T20:38:01.089Z,1014.54
2018-05-29T20:39:00.956Z,1014.42
2018-05-29T20:40:00.745Z,1015.03
2018-05-29T20:41:00.688Z,1014.83
2018-05-29T20:42:01.048Z,1014.65
2018-05-29T20:43:00.966Z,1014.81
2018-05-29T20:44:00.574Z,1014.74
2018-05-29T20:45:01.203Z,1014.95
2018-05-29T20:46:00.557Z,1014.96
2018-05-29T20:47:00.859Z,1014.84
2018-05-29T20:48:00.641Z,1015.01
2018-05-29T20:49:00.543Z,1014.81
2018-05-29T20:50:01.216Z,1014.9
2018-05-29T20:51:01.171Z,1014.82
2018-05-29T20:52:00.940Z,1015.12
2018-05-29T20:53:00.850Z,1014.6
2018-05-29T20:54:01.113Z,1015.14
2018-05-29T20:55:01.029Z,1014.89
2018-05-29T20:56:00.673Z,1015.27
2018-05-29T20:57:00.528Z,1015.11
2018-05-29T20:58:00.893Z,1015.1
2018-05-29T20:59:00.949Z,1014.91
2018-05-29T21:00:00.622Z,1015.1
2018-05-29T21:01:00.565Z,1015.22
2018-05-29T21:02:00.616Z,1014.86
2018-05-29T21:03:00.582Z,1015.15
2018-05-29T21:04:00.634Z,1015.05
2018-05-29T21:05:00.612Z,1015.12
2018-05-29T21:06:00.571Z,1014.68
2018-05-29T21:07:00.764Z,1014.52
2018-05-29T21:09:00.504Z,1014.04
2018-05-29T21:10:00.701Z,1014.19
2018-05-29T21:11:00.655Z,1014.14
2018-05-29T21:12:00.847Z,1014.13
2018-05-29T21:13:01.456Z,1014.26
2018-05-29T21:14:00.831Z,1013.92
2018-05-29T21:15:00.793Z,1014.27
2018-05-29T21:16:00.645Z,1014.07
2018-05-29T21:17:00.484Z,1013.96
2018-05-29T21:18:00.526Z,1013.89
2018-05-29T21:19:00.600Z,1014.18
2018-05-29T21:20:00.721Z,1014.02
2018-05-29T21:21:01.103Z,1013.84
2018-05-29T21:22:00.736Z,1013.87
2018-05-29T21:23:00.590Z,1013.74
2018-05-29T21:24:00.661Z,1013.69
2018-05-29T21:25:00.521Z,1013.71
2018-05-29T21:26:00.549Z,1013.39
2018-05-29T21:27:00.577Z,1013.24
2018-05-29T21:28:00.613Z,1013.14
2018-05-29T21:29:00.478Z,1013.09
2018-05-29T21:30:00.626Z,1013.05
2018-05-29T21:31:00.526Z,1012.86
2018-05-29T21:32:00.462Z,1012.71
2018-05-29T21:33:00.471Z,1012.27
2018-05-29T21:37:29.803Z,1012.09
2018-05-29T21:38:29.782Z,1012.12
2018-05-29T21:39:29.806Z,1012.01
2018-05-29T21:40:29.722Z,1011.77
2018-05-29T21:41:29.739Z,1011.74
2018-05-29T21:42:29.771Z,1011.71
2018-05-29T21:43:29.732Z,1011.62
2018-05-29T21:44:29.733Z,1011.5
2018-05-29T21:45:29.735Z,1011.55
2018-05-29T21:46:29.788Z,1011.36
2018-05-29T21:47:29.831Z,1011.45
2018-05-29T21:48:29.746Z,1011.38
2018-05-29T21:49:29.747Z,1011.28
2018-05-29T21:50:29.759Z,1011.21
2018-05-29T21:51:29.740Z,1011.11
2018-05-29T21:52:29.748Z,1011.36
2018-05-29T21:53:29.806Z,1011.18
2018-05-29T21:54:29.762Z,1011.22
2018-05-29T21:55:29.736Z,1011.03
2018-05-29T21:56:29.745Z,1010.99
2018-05-29T21:57:29.779Z,1010.98
2018-05-29T21:58:29.763Z,1010.99
2018-05-29T21:59:29.796Z,1011.14
2018-05-29T22:00:29.799Z,1010.81
2018-05-29T22:01:29.779Z,1010.9
2018-05-29T22:02:29.784Z,1011.05
2018-05-29T22:03:29.924Z,1011.15
2018-05-29T22:04:29.803Z,1011.25
2018-05-29T22:05:29.831Z,1011.1
2018-05-29T22:06:29.789Z,1011.07
2018-05-29T22:07:29.779Z,1011.22
2018-05-29T22:08:29.773Z,1010.9
2018-05-29T22:09:29.777Z,1011.05
2018-05-29T22:10:29.788Z,1011.33
2018-05-29T22:11:29.799Z,1011.06
2018-05-29T22:12:29.789Z,1011.12
2018-05-29T22:13:29.817Z,1011.2
2018-05-29T22:14:29.789Z,1011.49
2018-05-29T22:15:29.805Z,1011.01
2018-05-29T22:16:29.862Z,1011.41
2018-05-29T22:17:29.784Z,1011.28
2018-05-29T22:21:58.686Z,1011.33
2018-05-29T22:22:58.697Z,1011.29
2018-05-29T22:23:58.760Z,1011.33
2018-05-29T22:24:58.683Z,1011.43
2018-05-29T22:25:58.716Z,1011.19
2018-05-29T22:26:58.696Z,1011.01
2018-05-29T22:27:58.742Z,1011.07
2018-05-29T22:28:58.771Z,1010.87
2018-05-29T22:29:58.731Z,1010.59
2018-05-29T22:30:58.728Z,1010.93
2018-05-29T22:31:58.735Z,1010.45
2018-05-29T22:32:58.802Z,1010.48
2018-05-29T22:33:58.747Z,1010.43
2018-05-29T22:34:58.727Z,1010.62
2018-05-29T22:35:58.728Z,1010.44
2018-05-29T22:36:58.708Z,1010.34
2018-05-29T22:37:59.048Z,1010.23
2018-05-29T22:38:58.711Z,1010.45
2018-05-29T22:39:58.700Z,1010.01
2018-05-29T22:40:58.708Z,1010.25
2018-05-29T22:41:58.726Z,1010.06
2018-05-29T22:42:58.760Z,1009.71
2018-05-29T22:43:58.711Z,1009.96
2018-05-29T22:44:58.747Z,1009.8
2018-05-29T22:45:58.713Z,1009.94
2018-05-29T22:46:58.723Z,1009.67
2018-05-29T22:47:58.775Z,1009.53
2018-05-29T22:48:58.733Z,1009.5
2018-05-29T22:49:58.743Z,1009.45
2018-05-29T22:50:58.742Z,1009.61
2018-05-29T22:51:58.712Z,1009.19
2018-05-29T22:52:58.765Z,1009.3
2018-05-29T22:53:58.740Z,1009.33
2018-05-29T22:54:58.771Z,1009.05
2018-05-29T22:55:58.748Z,1008.86
2018-05-29T22:56:58.766Z,1008.72
2018-05-29T22:57:58.761Z,1008.74
2018-05-29T22:58:58.750Z,1008.65
2018-05-29T22:59:58.807Z,1008.57
2018-05-29T23:00:58.792Z,1008.69
2018-05-29T23:01:58.769Z,1008.88
2018-05-29T23:02:58.772Z,1008.76
2018-05-29T23:03:58.762Z,1008.49
2018-05-29T23:08:28.608Z,1008.65
2018-05-29T23:09:28.582Z,1008.49
2018-05-29T23:10:28.593Z,1008.51
2018-05-29T23:11:28.574Z,1008.4
2018-05-29T23:12:28.575Z,1008.12
2018-05-29T23:13:29.740Z,1008.03
2018-05-29T23:14:28.593Z,1008.1
2018-05-29T23:15:28.618Z,1008.22
2018-05-29T23:16:28.609Z,1008.4
2018-05-29T23:17:28.590Z,1008.14
2018-05-29T23:18:28.640Z,1008.08
2018-05-29T23:19:28.597Z,1008.09
2018-05-29T23:20:28.617Z,1008.14
2018-05-29T23:21:28.618Z,1008.2
2018-05-29T23:22:28.599Z,1008.08
2018-05-29T23:23:28.625Z,1008.27
2018-05-29T23:24:28.611Z,1007.95
2018-05-29T23:25:28.641Z,1007.87
2018-05-29T23:26:28.631Z,1007.99
2018-05-29T23:27:28.626Z,1007.98
2018-05-29T23:28:28.606Z,1007.94
2018-05-29T23:29:28.648Z,1008
2018-05-29T23:30:28.620Z,1007.69
2018-05-29T23:31:28.658Z,1007.85
2018-05-29T23:32:28.637Z,1007.69
2018-05-29T23:33:28.647Z,1007.56
2018-05-29T23:34:28.648Z,1007.58
2018-05-29T23:35:28.682Z,1007.82
2018-05-29T23:36:28.637Z,1007.64
2018-05-29T23:37:28.674Z,1007.65
2018-05-29T23:38:28.670Z,1007.45
2018-05-29T23:39:28.676Z,1007.63
2018-05-29T23:40:28.697Z,1007.61
2018-05-29T23:41:28.644Z,1007.52
2018-05-29T23:42:28.648Z,1007.01
2018-05-29T23:43:28.630Z,1007.34
2018-05-29T23:44:28.632Z,1007.36
2018-05-29T23:45:28.672Z,1007.35
2018-05-29T23:46:28.654Z,1007.27
2018-05-29T23:47:28.647Z,1007.33
2018-05-29T23:48:28.662Z,1007.17
2018-05-29T23:49:28.638Z,1007.4
2018-05-29T23:50:28.677Z,1006.9
2018-05-29T23:51:28.688Z,1007.05
2018-05-29T23:52:28.655Z,1007.06
2018-05-29T23:53:28.683Z,1007.16
2018-05-29T23:54:28.680Z,1006.89
2018-05-29T23:55:28.674Z,1007.11
2018-05-29T23:56:28.656Z,1006.99
2018-05-29T23:57:28.676Z,1006.89
2018-05-29T23:58:28.683Z,1006.9
2018-05-29T23:59:28.743Z,1006.85
